sensor_id;sensor_type;location;lat;lon;timestamp;P1;durP1;ratioP1;P2;durP2;ratioP2
8001;SDS011;4046;48.774;8.732;2023-12-28T00:01:43;1.40;;;1.30;;
8001;SDS011;4046;48.774;8.732;2023-12-28T00:04:18;1.43;;;1.33;;
8001;SDS011;4046;48.774;8.732;2023-12-28T00:07:00;2.00;;;1.80;;
8001;SDS011;4046;48.774;8.732;2023-12-28T00:09:36;1.40;;;1.30;;
8001;SDS011;4046;48.774;8.732;2023-12-28T00:12:26;1.90;;;1.70;;
8001;SDS011;4046;48.774;8.732;2023-12-28T00:15:09;1.53;;;1.40;;
8001;SDS011;4046;48.774;8.732;2023-12-28T00:18:11;1.87;;;1.77;;
8001;SDS011;4046;48.774;8.732;2023-12-28T00:20:50;1.40;;;1.30;;
8001;SDS011;4046;48.774;8.732;2023-12-28T00:23:35;1.83;;;1.63;;
8001;SDS011;4046;48.774;8.732;2023-12-28T00:26:07;1.67;;;1.50;;
8001;SDS011;4046;48.774;8.732;2023-12-28T00:28:46;1.50;;;1.40;;
8001;SDS011;4046;48.774;8.732;2023-12-28T00:31:15;1.70;;;1.60;;
8001;SDS011;4046;48.774;8.732;2023-12-28T00:34:26;1.80;;;1.70;;
8001;SDS011;4046;48.774;8.732;2023-12-28T00:36:56;1.57;;;1.47;;
8001;SDS011;4046;48.774;8.732;2023-12-28T00:39:22;6.63;;;2.07;;
8001;SDS011;4046;48.774;8.732;2023-12-28T00:42:11;1.60;;;1.50;;
8001;SDS011;4046;48.774;8.732;2023-12-28T00:44:59;1.80;;;1.70;;
8001;SDS011;4046;48.774;8.732;2023-12-28T00:47:28;1.70;;;1.53;;
8001;SDS011;4046;48.774;8.732;2023-12-28T00:50:03;1.57;;;1.47;;
8001;SDS011;4046;48.774;8.732;2023-12-28T00:52:29;1.73;;;1.63;;
8001;SDS011;4046;48.774;8.732;2023-12-28T00:55:04;1.80;;;1.70;;
8001;SDS011;4046;48.774;8.732;2023-12-28T00:57:37;1.50;;;1.40;;
8001;SDS011;4046;48.774;8.732;2023-12-28T01:00:14;1.50;;;1.40;;
8001;SDS011;4046;48.774;8.732;2023-12-28T01:02:47;1.60;;;1.40;;
8001;SDS011;4046;48.774;8.732;2023-12-28T01:05:13;1.77;;;1.60;;
8001;SDS011;4046;48.774;8.732;2023-12-28T01:08:12;1.80;;;1.70;;
8001;SDS011;4046;48.774;8.732;2023-12-28T01:10:55;1.50;;;1.40;;
8001;SDS011;4046;48.774;8.732;2023-12-28T01:13:30;1.70;;;1.60;;
8001;SDS011;4046;48.774;8.732;2023-12-28T01:16:03;1.83;;;1.60;;
8001;SDS011;4046;48.774;8.732;2023-12-28T01:18:43;1.70;;;1.60;;
8001;SDS011;4046;48.774;8.732;2023-12-28T01:21:09;1.80;;;1.70;;
8001;SDS011;4046;48.774;8.732;2023-12-28T01:24:17;1.90;;;1.80;;
8001;SDS011;4046;48.774;8.732;2023-12-28T01:26:56;1.80;;;1.70;;
8001;SDS011;4046;48.774;8.732;2023-12-28T01:29:46;1.60;;;1.50;;
8001;SDS011;4046;48.774;8.732;2023-12-28T01:32:18;1.60;;;1.50;;
8001;SDS011;4046;48.774;8.732;2023-12-28T01:34:57;1.63;;;1.53;;
8001;SDS011;4046;48.774;8.732;2023-12-28T01:37:33;2.00;;;1.90;;
8001;SDS011;4046;48.774;8.732;2023-12-28T01:40:24;1.60;;;1.50;;
8001;SDS011;4046;48.774;8.732;2023-12-28T01:43:35;1.60;;;1.50;;
8001;SDS011;4046;48.774;8.732;2023-12-28T01:46:18;1.60;;;1.50;;
8001;SDS011;4046;48.774;8.732;2023-12-28T01:48:49;1.60;;;1.50;;
8001;SDS011;4046;48.774;8.732;2023-12-28T01:51:27;1.50;;;1.30;;
8001;SDS011;4046;48.774;8.732;2023-12-28T01:54:07;1.73;;;1.63;;
8001;SDS011;4046;48.774;8.732;2023-12-28T01:59:25;1.47;;;1.37;;
8001;SDS011;4046;48.774;8.732;2023-12-28T02:02:16;1.60;;;1.50;;
8001;SDS011;4046;48.774;8.732;2023-12-28T02:04:42;1.93;;;1.70;;
8001;SDS011;4046;48.774;8.732;2023-12-28T02:07:24;1.50;;;1.40;;
8001;SDS011;4046;48.774;8.732;2023-12-28T02:10:00;1.50;;;1.40;;
8001;SDS011;4046;48.774;8.732;2023-12-28T02:12:35;1.80;;;1.70;;
8001;SDS011;4046;48.774;8.732;2023-12-28T02:15:31;1.70;;;1.60;;
8001;SDS011;4046;48.774;8.732;2023-12-28T02:18:09;2.13;;;1.70;;
8001;SDS011;4046;48.774;8.732;2023-12-28T02:20:38;1.70;;;1.60;;
8001;SDS011;4046;48.774;8.732;2023-12-28T02:23:05;1.70;;;1.60;;
8001;SDS011;4046;48.774;8.732;2023-12-28T02:29:05;1.93;;;1.80;;
8001;SDS011;4046;48.774;8.732;2023-12-28T02:31:53;1.50;;;1.40;;
8001;SDS011;4046;48.774;8.732;2023-12-28T02:34:27;2.10;;;1.93;;
8001;SDS011;4046;48.774;8.732;2023-12-28T02:36:57;1.70;;;1.60;;
8001;SDS011;4046;48.774;8.732;2023-12-28T02:39:46;1.77;;;1.43;;
8001;SDS011;4046;48.774;8.732;2023-12-28T02:42:54;1.53;;;1.43;;
8001;SDS011;4046;48.774;8.732;2023-12-28T02:45:23;1.60;;;1.50;;
8001;SDS011;4046;48.774;8.732;2023-12-28T02:47:59;1.60;;;1.50;;
8001;SDS011;4046;48.774;8.732;2023-12-28T02:54:21;1.63;;;1.53;;
8001;SDS011;4046;48.774;8.732;2023-12-28T02:57:15;1.93;;;1.73;;
8001;SDS011;4046;48.774;8.732;2023-12-28T02:59:51;1.73;;;1.60;;
8001;SDS011;4046;48.774;8.732;2023-12-28T03:02:45;1.63;;;1.53;;
8001;SDS011;4046;48.774;8.732;2023-12-28T03:05:11;1.63;;;1.53;;
8001;SDS011;4046;48.774;8.732;2023-12-28T03:07:57;1.40;;;1.30;;
8001;SDS011;4046;48.774;8.732;2023-12-28T03:10:40;1.73;;;1.63;;
8001;SDS011;4046;48.774;8.732;2023-12-28T03:13:10;1.50;;;1.40;;
8001;SDS011;4046;48.774;8.732;2023-12-28T03:16:03;1.80;;;1.70;;
8001;SDS011;4046;48.774;8.732;2023-12-28T03:18:30;1.50;;;1.40;;
8001;SDS011;4046;48.774;8.732;2023-12-28T03:21:14;1.40;;;1.23;;
8001;SDS011;4046;48.774;8.732;2023-12-28T03:23:55;1.60;;;1.50;;
8001;SDS011;4046;48.774;8.732;2023-12-28T03:26:48;1.60;;;1.50;;
8001;SDS011;4046;48.774;8.732;2023-12-28T03:29:31;1.60;;;1.50;;
8001;SDS011;4046;48.774;8.732;2023-12-28T03:32:09;1.70;;;1.60;;
8001;SDS011;4046;48.774;8.732;2023-12-28T03:34:41;1.77;;;1.67;;
8001;SDS011;4046;48.774;8.732;2023-12-28T03:37:34;1.50;;;1.40;;
8001;SDS011;4046;48.774;8.732;2023-12-28T03:40:10;1.60;;;1.50;;
8001;SDS011;4046;48.774;8.732;2023-12-28T03:42:43;1.70;;;1.60;;
8001;SDS011;4046;48.774;8.732;2023-12-28T03:45:22;1.47;;;1.37;;
8001;SDS011;4046;48.774;8.732;2023-12-28T03:48:05;1.70;;;1.60;;
8001;SDS011;4046;48.774;8.732;2023-12-28T03:50:51;1.77;;;1.67;;
8001;SDS011;4046;48.774;8.732;2023-12-28T03:53:26;1.73;;;1.60;;
8001;SDS011;4046;48.774;8.732;2023-12-28T03:56:01;1.60;;;1.50;;
8001;SDS011;4046;48.774;8.732;2023-12-28T03:58:29;1.40;;;1.30;;
8001;SDS011;4046;48.774;8.732;2023-12-28T04:04:16;1.77;;;1.67;;
8001;SDS011;4046;48.774;8.732;2023-12-28T04:06:49;1.60;;;1.33;;
8001;SDS011;4046;48.774;8.732;2023-12-28T04:09:35;1.60;;;1.50;;
8001;SDS011;4046;48.774;8.732;2023-12-28T04:12:40;1.40;;;1.30;;
8001;SDS011;4046;48.774;8.732;2023-12-28T04:15:15;1.37;;;1.27;;
8001;SDS011;4046;48.774;8.732;2023-12-28T04:17:40;1.90;;;1.70;;
8001;SDS011;4046;48.774;8.732;2023-12-28T04:20:18;1.53;;;1.40;;
8001;SDS011;4046;48.774;8.732;2023-12-28T04:23:05;1.60;;;1.50;;
8001;SDS011;4046;48.774;8.732;2023-12-28T04:25:44;1.50;;;1.40;;
8001;SDS011;4046;48.774;8.732;2023-12-28T04:28:14;1.30;;;1.17;;
8001;SDS011;4046;48.774;8.732;2023-12-28T04:31:02;1.60;;;1.50;;
8001;SDS011;4046;48.774;8.732;2023-12-28T04:33:32;1.70;;;1.60;;
8001;SDS011;4046;48.774;8.732;2023-12-28T04:36:16;1.70;;;1.40;;
8001;SDS011;4046;48.774;8.732;2023-12-28T04:39:11;1.67;;;1.57;;
8001;SDS011;4046;48.774;8.732;2023-12-28T04:41:50;1.60;;;1.50;;
8001;SDS011;4046;48.774;8.732;2023-12-28T04:44:22;1.73;;;1.63;;
8001;SDS011;4046;48.774;8.732;2023-12-28T04:46:48;1.60;;;1.50;;
8001;SDS011;4046;48.774;8.732;2023-12-28T04:49:14;1.60;;;1.50;;
8001;SDS011;4046;48.774;8.732;2023-12-28T04:51:43;1.63;;;1.53;;
8001;SDS011;4046;48.774;8.732;2023-12-28T04:54:48;1.57;;;1.30;;
8001;SDS011;4046;48.774;8.732;2023-12-28T04:57:53;1.63;;;1.53;;
8001;SDS011;4046;48.774;8.732;2023-12-28T05:00:37;1.40;;;1.30;;
8001;SDS011;4046;48.774;8.732;2023-12-28T05:03:12;1.60;;;1.50;;
8001;SDS011;4046;48.774;8.732;2023-12-28T05:05:44;1.77;;;1.67;;
8001;SDS011;4046;48.774;8.732;2023-12-28T05:08:19;1.50;;;1.40;;
8001;SDS011;4046;48.774;8.732;2023-12-28T05:10:57;1.63;;;1.53;;
8001;SDS011;4046;48.774;8.732;2023-12-28T05:13:22;1.50;;;1.40;;
8001;SDS011;4046;48.774;8.732;2023-12-28T05:16:17;1.60;;;1.30;;
8001;SDS011;4046;48.774;8.732;2023-12-28T05:18:53;1.60;;;1.50;;
8001;SDS011;4046;48.774;8.732;2023-12-28T05:21:22;1.53;;;1.43;;
8001;SDS011;4046;48.774;8.732;2023-12-28T05:24:18;1.50;;;1.40;;
8001;SDS011;4046;48.774;8.732;2023-12-28T05:26:54;1.40;;;1.30;;
8001;SDS011;4046;48.774;8.732;2023-12-28T05:29:25;2.00;;;1.80;;
8001;SDS011;4046;48.774;8.732;2023-12-28T05:31:56;1.80;;;1.60;;
8001;SDS011;4046;48.774;8.732;2023-12-28T05:34:48;1.70;;;1.60;;
8001;SDS011;4046;48.774;8.732;2023-12-28T05:37:16;1.70;;;1.60;;
8001;SDS011;4046;48.774;8.732;2023-12-28T05:39:45;1.63;;;1.53;;
8001;SDS011;4046;48.774;8.732;2023-12-28T05:42:29;1.50;;;1.40;;
8001;SDS011;4046;48.774;8.732;2023-12-28T05:45:07;1.43;;;1.33;;
8001;SDS011;4046;48.774;8.732;2023-12-28T05:47:45;1.67;;;1.57;;
8001;SDS011;4046;48.774;8.732;2023-12-28T05:50:17;1.80;;;1.70;;
8001;SDS011;4046;48.774;8.732;2023-12-28T05:52:46;1.50;;;1.40;;
8001;SDS011;4046;48.774;8.732;2023-12-28T05:55:24;1.50;;;1.40;;
8001;SDS011;4046;48.774;8.732;2023-12-28T05:57:53;1.53;;;1.43;;
8001;SDS011;4046;48.774;8.732;2023-12-28T06:00:37;1.50;;;1.40;;
8001;SDS011;4046;48.774;8.732;2023-12-28T06:03:29;1.30;;;1.20;;
8001;SDS011;4046;48.774;8.732;2023-12-28T06:05:55;1.40;;;1.27;;
8001;SDS011;4046;48.774;8.732;2023-12-28T06:08:42;1.33;;;1.20;;
8001;SDS011;4046;48.774;8.732;2023-12-28T06:11:25;1.63;;;1.53;;
8001;SDS011;4046;48.774;8.732;2023-12-28T06:14:15;1.30;;;1.20;;
8001;SDS011;4046;48.774;8.732;2023-12-28T06:16:59;1.70;;;1.60;;
8001;SDS011;4046;48.774;8.732;2023-12-28T06:19:25;1.30;;;1.10;;
8001;SDS011;4046;48.774;8.732;2023-12-28T06:22:21;1.60;;;1.50;;
8001;SDS011;4046;48.774;8.732;2023-12-28T06:25:13;1.70;;;1.60;;
8001;SDS011;4046;48.774;8.732;2023-12-28T06:27:51;1.50;;;1.40;;
8001;SDS011;4046;48.774;8.732;2023-12-28T06:30:31;1.37;;;1.27;;
8001;SDS011;4046;48.774;8.732;2023-12-28T06:33:07;1.50;;;1.40;;
8001;SDS011;4046;48.774;8.732;2023-12-28T06:36:06;1.70;;;1.50;;
8001;SDS011;4046;48.774;8.732;2023-12-28T06:38:38;1.40;;;1.23;;
8001;SDS011;4046;48.774;8.732;2023-12-28T06:41:13;1.50;;;1.40;;
8001;SDS011;4046;48.774;8.732;2023-12-28T06:43:39;1.63;;;1.53;;
8001;SDS011;4046;48.774;8.732;2023-12-28T06:46:05;1.60;;;1.50;;
8001;SDS011;4046;48.774;8.732;2023-12-28T06:49:08;1.50;;;1.40;;
8001;SDS011;4046;48.774;8.732;2023-12-28T06:51:33;1.60;;;1.50;;
8001;SDS011;4046;48.774;8.732;2023-12-28T06:54:01;1.63;;;1.53;;
8001;SDS011;4046;48.774;8.732;2023-12-28T06:56:48;1.53;;;1.43;;
8001;SDS011;4046;48.774;8.732;2023-12-28T06:59:29;1.60;;;1.50;;
8001;SDS011;4046;48.774;8.732;2023-12-28T07:01:54;1.40;;;1.30;;
8001;SDS011;4046;48.774;8.732;2023-12-28T07:04:20;1.70;;;1.60;;
8001;SDS011;4046;48.774;8.732;2023-12-28T07:06:52;1.30;;;1.20;;
8001;SDS011;4046;48.774;8.732;2023-12-28T07:09:34;1.40;;;1.30;;
8001;SDS011;4046;48.774;8.732;2023-12-28T07:12:28;1.50;;;1.40;;
8001;SDS011;4046;48.774;8.732;2023-12-28T07:15:28;1.33;;;1.20;;
8001;SDS011;4046;48.774;8.732;2023-12-28T07:17:57;1.50;;;1.40;;
8001;SDS011;4046;48.774;8.732;2023-12-28T07:20:29;1.50;;;1.40;;
8001;SDS011;4046;48.774;8.732;2023-12-28T07:23:12;1.40;;;1.30;;
8001;SDS011;4046;48.774;8.732;2023-12-28T07:25:38;1.53;;;1.43;;
8001;SDS011;4046;48.774;8.732;2023-12-28T07:28:07;1.40;;;1.30;;
8001;SDS011;4046;48.774;8.732;2023-12-28T07:30:55;1.60;;;1.30;;
8001;SDS011;4046;48.774;8.732;2023-12-28T07:34:16;1.50;;;1.40;;
8001;SDS011;4046;48.774;8.732;2023-12-28T07:36:48;2.90;;;1.60;;
8001;SDS011;4046;48.774;8.732;2023-12-28T07:39:25;1.60;;;1.50;;
8001;SDS011;4046;48.774;8.732;2023-12-28T07:41:57;1.70;;;1.60;;
8001;SDS011;4046;48.774;8.732;2023-12-28T07:44:35;1.20;;;1.07;;
8001;SDS011;4046;48.774;8.732;2023-12-28T07:47:15;1.30;;;1.17;;
8001;SDS011;4046;48.774;8.732;2023-12-28T07:49:41;1.50;;;1.40;;
8001;SDS011;4046;48.774;8.732;2023-12-28T07:52:10;1.50;;;1.40;;
8001;SDS011;4046;48.774;8.732;2023-12-28T07:54:36;1.70;;;1.60;;
8001;SDS011;4046;48.774;8.732;2023-12-28T07:57:04;1.40;;;1.30;;
8001;SDS011;4046;48.774;8.732;2023-12-28T07:59:42;1.30;;;1.10;;
8001;SDS011;4046;48.774;8.732;2023-12-28T08:02:07;1.57;;;1.40;;
8001;SDS011;4046;48.774;8.732;2023-12-28T08:04:37;1.50;;;1.10;;
8001;SDS011;4046;48.774;8.732;2023-12-28T08:07:25;1.40;;;1.30;;
8001;SDS011;4046;48.774;8.732;2023-12-28T08:10:09;1.50;;;1.40;;
8001;SDS011;4046;48.774;8.732;2023-12-28T08:12:57;1.43;;;1.33;;
8001;SDS011;4046;48.774;8.732;2023-12-28T08:15:41;1.27;;;1.00;;
8001;SDS011;4046;48.774;8.732;2023-12-28T08:18:14;1.40;;;1.20;;
8001;SDS011;4046;48.774;8.732;2023-12-28T08:21:00;1.70;;;1.60;;
8001;SDS011;4046;48.774;8.732;2023-12-28T08:23:47;1.40;;;1.30;;
8001;SDS011;4046;48.774;8.732;2023-12-28T08:26:17;1.40;;;1.30;;
8001;SDS011;4046;48.774;8.732;2023-12-28T08:28:58;1.40;;;1.30;;
8001;SDS011;4046;48.774;8.732;2023-12-28T08:31:33;1.33;;;1.23;;
8001;SDS011;4046;48.774;8.732;2023-12-28T08:33:58;1.60;;;1.50;;
8001;SDS011;4046;48.774;8.732;2023-12-28T08:36:24;1.20;;;1.00;;
8001;SDS011;4046;48.774;8.732;2023-12-28T08:38:57;1.80;;;1.30;;
8001;SDS011;4046;48.774;8.732;2023-12-28T08:41:44;1.50;;;1.40;;
8001;SDS011;4046;48.774;8.732;2023-12-28T08:44:17;1.87;;;1.30;;
8001;SDS011;4046;48.774;8.732;2023-12-28T08:46:52;1.43;;;1.33;;
8001;SDS011;4046;48.774;8.732;2023-12-28T08:49:28;1.33;;;1.23;;
8001;SDS011;4046;48.774;8.732;2023-12-28T08:52:38;1.20;;;1.00;;
8001;SDS011;4046;48.774;8.732;2023-12-28T08:55:17;1.50;;;1.40;;
8001;SDS011;4046;48.774;8.732;2023-12-28T08:57:46;1.20;;;1.10;;
8001;SDS011;4046;48.774;8.732;2023-12-28T09:00:24;1.30;;;1.10;;
8001;SDS011;4046;48.774;8.732;2023-12-28T09:02:51;1.53;;;1.30;;
8001;SDS011;4046;48.774;8.732;2023-12-28T09:05:27;1.37;;;1.27;;
8001;SDS011;4046;48.774;8.732;2023-12-28T09:08:01;1.40;;;1.30;;
8001;SDS011;4046;48.774;8.732;2023-12-28T09:10:27;1.27;;;1.10;;
8001;SDS011;4046;48.774;8.732;2023-12-28T09:13:00;1.47;;;1.37;;
8001;SDS011;4046;48.774;8.732;2023-12-28T09:15:46;1.30;;;1.20;;
8001;SDS011;4046;48.774;8.732;2023-12-28T09:18:13;1.30;;;1.20;;
8001;SDS011;4046;48.774;8.732;2023-12-28T09:20:39;1.30;;;1.03;;
8001;SDS011;4046;48.774;8.732;2023-12-28T09:23:35;1.60;;;1.40;;
8001;SDS011;4046;48.774;8.732;2023-12-28T09:26:01;1.33;;;1.23;;
8001;SDS011;4046;48.774;8.732;2023-12-28T09:28:35;1.30;;;1.10;;
8001;SDS011;4046;48.774;8.732;2023-12-28T09:31:26;1.43;;;1.10;;
8001;SDS011;4046;48.774;8.732;2023-12-28T09:33:57;1.40;;;1.30;;
8001;SDS011;4046;48.774;8.732;2023-12-28T09:36:26;1.40;;;1.30;;
8001;SDS011;4046;48.774;8.732;2023-12-28T09:39:01;1.33;;;1.23;;
8001;SDS011;4046;48.774;8.732;2023-12-28T09:41:49;1.53;;;1.43;;
8001;SDS011;4046;48.774;8.732;2023-12-28T09:44:28;1.50;;;1.40;;
8001;SDS011;4046;48.774;8.732;2023-12-28T09:47:07;1.57;;;1.47;;
8001;SDS011;4046;48.774;8.732;2023-12-28T09:49:48;1.40;;;1.30;;
8001;SDS011;4046;48.774;8.732;2023-12-28T09:52:14;1.50;;;1.40;;
8001;SDS011;4046;48.774;8.732;2023-12-28T09:55:01;1.80;;;1.40;;
8001;SDS011;4046;48.774;8.732;2023-12-28T09:57:30;1.50;;;1.40;;
8001;SDS011;4046;48.774;8.732;2023-12-28T09:59:58;1.50;;;1.37;;
8001;SDS011;4046;48.774;8.732;2023-12-28T10:02:41;1.50;;;1.40;;
8001;SDS011;4046;48.774;8.732;2023-12-28T10:05:40;1.70;;;1.60;;
8001;SDS011;4046;48.774;8.732;2023-12-28T10:08:13;4.10;;;1.63;;
8001;SDS011;4046;48.774;8.732;2023-12-28T10:10:40;2.07;;;1.33;;
8001;SDS011;4046;48.774;8.732;2023-12-28T10:13:12;1.43;;;1.33;;
8001;SDS011;4046;48.774;8.732;2023-12-28T10:15:42;1.70;;;1.60;;
8001;SDS011;4046;48.774;8.732;2023-12-28T10:18:21;1.30;;;1.20;;
8001;SDS011;4046;48.774;8.732;2023-12-28T10:20:50;1.70;;;1.60;;
8001;SDS011;4046;48.774;8.732;2023-12-28T10:23:29;1.57;;;1.47;;
8001;SDS011;4046;48.774;8.732;2023-12-28T10:26:09;1.50;;;1.40;;
8001;SDS011;4046;48.774;8.732;2023-12-28T10:28:35;1.53;;;1.43;;
8001;SDS011;4046;48.774;8.732;2023-12-28T10:34:10;1.37;;;1.27;;
8001;SDS011;4046;48.774;8.732;2023-12-28T10:37:03;1.47;;;1.37;;
8001;SDS011;4046;48.774;8.732;2023-12-28T10:39:50;1.33;;;1.23;;
8001;SDS011;4046;48.774;8.732;2023-12-28T10:42:57;2.00;;;1.90;;
8001;SDS011;4046;48.774;8.732;2023-12-28T10:45:50;1.90;;;1.40;;
8001;SDS011;4046;48.774;8.732;2023-12-28T10:48:21;1.43;;;1.33;;
8001;SDS011;4046;48.774;8.732;2023-12-28T10:51:21;1.73;;;1.63;;
8001;SDS011;4046;48.774;8.732;2023-12-28T11:02:47;1.50;;;1.40;;
8001;SDS011;4046;48.774;8.732;2023-12-28T11:05:37;1.40;;;1.30;;
8001;SDS011;4046;48.774;8.732;2023-12-28T11:08:12;1.80;;;1.40;;
8001;SDS011;4046;48.774;8.732;2023-12-28T11:10:51;1.30;;;1.10;;
8001;SDS011;4046;48.774;8.732;2023-12-28T11:13:28;2.47;;;1.60;;
8001;SDS011;4046;48.774;8.732;2023-12-28T11:16:22;1.30;;;1.20;;
8001;SDS011;4046;48.774;8.732;2023-12-28T11:19:05;1.30;;;1.10;;
8001;SDS011;4046;48.774;8.732;2023-12-28T11:21:54;1.30;;;1.07;;
8001;SDS011;4046;48.774;8.732;2023-12-28T11:24:27;1.30;;;1.10;;
8001;SDS011;4046;48.774;8.732;2023-12-28T11:27:04;1.40;;;1.20;;
8001;SDS011;4046;48.774;8.732;2023-12-28T11:29:39;1.50;;;1.37;;
8001;SDS011;4046;48.774;8.732;2023-12-28T11:32:10;1.40;;;1.20;;
8001;SDS011;4046;48.774;8.732;2023-12-28T11:34:36;1.20;;;1.00;;
8001;SDS011;4046;48.774;8.732;2023-12-28T11:37:12;1.30;;;1.20;;
8001;SDS011;4046;48.774;8.732;2023-12-28T11:40:12;1.50;;;1.40;;
8001;SDS011;4046;48.774;8.732;2023-12-28T11:42:51;1.37;;;1.27;;
8001;SDS011;4046;48.774;8.732;2023-12-28T11:45:24;1.30;;;1.20;;
8001;SDS011;4046;48.774;8.732;2023-12-28T11:48:22;1.37;;;1.20;;
8001;SDS011;4046;48.774;8.732;2023-12-28T11:51:02;1.33;;;1.23;;
8001;SDS011;4046;48.774;8.732;2023-12-28T11:53:42;1.30;;;1.10;;
8001;SDS011;4046;48.774;8.732;2023-12-28T11:56:35;1.27;;;1.00;;
8001;SDS011;4046;48.774;8.732;2023-12-28T12:02:14;1.20;;;1.10;;
8001;SDS011;4046;48.774;8.732;2023-12-28T12:05:21;1.30;;;1.10;;
8001;SDS011;4046;48.774;8.732;2023-12-28T12:07:54;1.20;;;0.93;;
8001;SDS011;4046;48.774;8.732;2023-12-28T12:10:32;1.60;;;1.50;;
8001;SDS011;4046;48.774;8.732;2023-12-28T12:13:01;1.30;;;1.17;;
8001;SDS011;4046;48.774;8.732;2023-12-28T12:15:59;1.20;;;1.10;;
8001;SDS011;4046;48.774;8.732;2023-12-28T12:18:34;1.60;;;1.20;;
8001;SDS011;4046;48.774;8.732;2023-12-28T12:21:40;1.30;;;1.00;;
8001;SDS011;4046;48.774;8.732;2023-12-28T12:24:18;1.30;;;1.10;;
8001;SDS011;4046;48.774;8.732;2023-12-28T12:26:45;1.23;;;1.10;;
8001;SDS011;4046;48.774;8.732;2023-12-28T12:29:11;1.30;;;1.10;;
8001;SDS011;4046;48.774;8.732;2023-12-28T12:31:37;1.30;;;1.00;;
8001;SDS011;4046;48.774;8.732;2023-12-28T12:34:06;1.40;;;1.30;;
8001;SDS011;4046;48.774;8.732;2023-12-28T12:36:39;1.53;;;1.13;;
8001;SDS011;4046;48.774;8.732;2023-12-28T12:39:10;1.20;;;1.00;;
8001;SDS011;4046;48.774;8.732;2023-12-28T12:42:14;1.30;;;1.20;;
8001;SDS011;4046;48.774;8.732;2023-12-28T12:44:39;1.30;;;1.00;;
8001;SDS011;4046;48.774;8.732;2023-12-28T12:47:07;1.30;;;1.20;;
8001;SDS011;4046;48.774;8.732;2023-12-28T12:49:58;1.40;;;1.20;;
8001;SDS011;4046;48.774;8.732;2023-12-28T12:52:35;1.30;;;1.10;;
8001;SDS011;4046;48.774;8.732;2023-12-28T12:55:31;1.20;;;1.00;;
8001;SDS011;4046;48.774;8.732;2023-12-28T12:58:33;1.20;;;1.00;;
8001;SDS011;4046;48.774;8.732;2023-12-28T13:01:10;1.20;;;1.10;;
8001;SDS011;4046;48.774;8.732;2023-12-28T13:03:56;1.30;;;1.17;;
8001;SDS011;4046;48.774;8.732;2023-12-28T13:06:54;1.30;;;1.10;;
8001;SDS011;4046;48.774;8.732;2023-12-28T13:09:23;1.20;;;1.00;;
8001;SDS011;4046;48.774;8.732;2023-12-28T13:12:22;1.50;;;0.90;;
8001;SDS011;4046;48.774;8.732;2023-12-28T13:14:59;1.30;;;1.10;;
8001;SDS011;4046;48.774;8.732;2023-12-28T13:17:38;1.20;;;0.90;;
8001;SDS011;4046;48.774;8.732;2023-12-28T13:20:12;1.23;;;0.90;;
8001;SDS011;4046;48.774;8.732;2023-12-28T13:22:44;1.20;;;1.00;;
8001;SDS011;4046;48.774;8.732;2023-12-28T13:25:17;1.30;;;1.03;;
8001;SDS011;4046;48.774;8.732;2023-12-28T13:27:59;1.20;;;1.00;;
8001;SDS011;4046;48.774;8.732;2023-12-28T13:30:51;1.30;;;1.07;;
8001;SDS011;4046;48.774;8.732;2023-12-28T13:33:20;1.40;;;0.90;;
8001;SDS011;4046;48.774;8.732;2023-12-28T13:35:50;1.20;;;0.80;;
8001;SDS011;4046;48.774;8.732;2023-12-28T13:38:19;1.30;;;0.97;;
8001;SDS011;4046;48.774;8.732;2023-12-28T13:40:51;1.23;;;0.90;;
8001;SDS011;4046;48.774;8.732;2023-12-28T13:43:20;1.20;;;1.00;;
8001;SDS011;4046;48.774;8.732;2023-12-28T13:46:15;1.10;;;0.80;;
8001;SDS011;4046;48.774;8.732;2023-12-28T13:49:28;1.30;;;1.00;;
8001;SDS011;4046;48.774;8.732;2023-12-28T13:52:23;1.20;;;0.93;;
8001;SDS011;4046;48.774;8.732;2023-12-28T13:55:01;1.17;;;0.90;;
8001;SDS011;4046;48.774;8.732;2023-12-28T13:57:34;1.20;;;0.90;;
8001;SDS011;4046;48.774;8.732;2023-12-28T14:00:09;1.40;;;0.90;;
8001;SDS011;4046;48.774;8.732;2023-12-28T14:02:49;1.20;;;0.90;;
8001;SDS011;4046;48.774;8.732;2023-12-28T14:05:34;1.20;;;0.90;;
8001;SDS011;4046;48.774;8.732;2023-12-28T14:08:01;1.17;;;0.90;;
8001;SDS011;4046;48.774;8.732;2023-12-28T14:10:31;1.20;;;0.93;;
8001;SDS011;4046;48.774;8.732;2023-12-28T14:13:12;1.10;;;0.80;;
8001;SDS011;4046;48.774;8.732;2023-12-28T14:15:38;1.30;;;0.93;;
8001;SDS011;4046;48.774;8.732;2023-12-28T14:18:32;1.30;;;1.00;;
8001;SDS011;4046;48.774;8.732;2023-12-28T14:21:02;1.20;;;0.83;;
8001;SDS011;4046;48.774;8.732;2023-12-28T14:23:33;1.27;;;1.10;;
8001;SDS011;4046;48.774;8.732;2023-12-28T14:26:32;1.30;;;1.10;;
8001;SDS011;4046;48.774;8.732;2023-12-28T14:29:19;1.20;;;0.90;;
8001;SDS011;4046;48.774;8.732;2023-12-28T14:31:59;1.20;;;0.93;;
8001;SDS011;4046;48.774;8.732;2023-12-28T14:34:37;1.20;;;1.00;;
8001;SDS011;4046;48.774;8.732;2023-12-28T14:37:03;1.10;;;0.77;;
8001;SDS011;4046;48.774;8.732;2023-12-28T14:39:29;1.30;;;1.00;;
8001;SDS011;4046;48.774;8.732;2023-12-28T14:42:00;1.17;;;0.80;;
8001;SDS011;4046;48.774;8.732;2023-12-28T14:45:14;1.20;;;1.00;;
8001;SDS011;4046;48.774;8.732;2023-12-28T14:47:39;1.20;;;0.90;;
8001;SDS011;4046;48.774;8.732;2023-12-28T14:50:13;1.20;;;1.00;;
8001;SDS011;4046;48.774;8.732;2023-12-28T14:52:43;1.20;;;0.80;;
8001;SDS011;4046;48.774;8.732;2023-12-28T14:55:22;1.30;;;0.97;;
8001;SDS011;4046;48.774;8.732;2023-12-28T14:57:52;1.20;;;0.80;;
8001;SDS011;4046;48.774;8.732;2023-12-28T15:00:28;1.20;;;0.90;;
8001;SDS011;4046;48.774;8.732;2023-12-28T15:03:06;1.27;;;1.00;;
8001;SDS011;4046;48.774;8.732;2023-12-28T15:05:56;1.40;;;1.03;;
8001;SDS011;4046;48.774;8.732;2023-12-28T15:08:59;1.20;;;0.97;;
8001;SDS011;4046;48.774;8.732;2023-12-28T15:12:08;1.20;;;0.90;;
8001;SDS011;4046;48.774;8.732;2023-12-28T15:14:43;1.93;;;1.10;;
8001;SDS011;4046;48.774;8.732;2023-12-28T15:17:09;1.30;;;1.00;;
8001;SDS011;4046;48.774;8.732;2023-12-28T15:19:46;1.67;;;1.10;;
8001;SDS011;4046;48.774;8.732;2023-12-28T15:22:45;1.30;;;1.20;;
8001;SDS011;4046;48.774;8.732;2023-12-28T15:25:11;1.40;;;1.30;;
8001;SDS011;4046;48.774;8.732;2023-12-28T15:27:44;1.30;;;1.10;;
8001;SDS011;4046;48.774;8.732;2023-12-28T15:30:19;1.30;;;1.20;;
8001;SDS011;4046;48.774;8.732;2023-12-28T15:32:54;2.20;;;1.40;;
8001;SDS011;4046;48.774;8.732;2023-12-28T15:35:20;1.30;;;1.13;;
8001;SDS011;4046;48.774;8.732;2023-12-28T15:37:46;1.40;;;1.20;;
8001;SDS011;4046;48.774;8.732;2023-12-28T15:40:12;1.87;;;1.00;;
8001;SDS011;4046;48.774;8.732;2023-12-28T15:43:18;1.30;;;1.00;;
8001;SDS011;4046;48.774;8.732;2023-12-28T15:45:45;1.23;;;1.10;;
8001;SDS011;4046;48.774;8.732;2023-12-28T15:48:20;1.30;;;1.20;;
8001;SDS011;4046;48.774;8.732;2023-12-28T15:51:01;1.33;;;1.17;;
8001;SDS011;4046;48.774;8.732;2023-12-28T15:53:42;1.67;;;1.20;;
8001;SDS011;4046;48.774;8.732;2023-12-28T15:56:13;1.30;;;1.20;;
8001;SDS011;4046;48.774;8.732;2023-12-28T15:59:23;1.80;;;1.00;;
8001;SDS011;4046;48.774;8.732;2023-12-28T16:01:53;1.20;;;1.10;;
8001;SDS011;4046;48.774;8.732;2023-12-28T16:04:40;1.33;;;1.20;;
8001;SDS011;4046;48.774;8.732;2023-12-28T16:07:18;1.30;;;1.20;;
8001;SDS011;4046;48.774;8.732;2023-12-28T16:09:47;1.40;;;1.30;;
8001;SDS011;4046;48.774;8.732;2023-12-28T16:12:38;1.20;;;1.00;;
8001;SDS011;4046;48.774;8.732;2023-12-28T16:15:07;1.20;;;1.07;;
8001;SDS011;4046;48.774;8.732;2023-12-28T16:17:47;1.40;;;1.30;;
8001;SDS011;4046;48.774;8.732;2023-12-28T16:20:19;1.70;;;1.20;;
8001;SDS011;4046;48.774;8.732;2023-12-28T16:23:03;1.40;;;1.20;;
8001;SDS011;4046;48.774;8.732;2023-12-28T16:25:35;1.20;;;1.00;;
8001;SDS011;4046;48.774;8.732;2023-12-28T16:28:00;1.30;;;1.20;;
8001;SDS011;4046;48.774;8.732;2023-12-28T16:30:29;1.30;;;1.20;;
8001;SDS011;4046;48.774;8.732;2023-12-28T16:33:13;1.40;;;1.30;;
8001;SDS011;4046;48.774;8.732;2023-12-28T16:35:39;1.43;;;1.33;;
8001;SDS011;4046;48.774;8.732;2023-12-28T16:38:39;1.20;;;1.00;;
8001;SDS011;4046;48.774;8.732;2023-12-28T16:41:05;1.30;;;1.20;;
8001;SDS011;4046;48.774;8.732;2023-12-28T16:43:40;1.23;;;1.10;;
8001;SDS011;4046;48.774;8.732;2023-12-28T16:48:57;1.50;;;1.20;;
8001;SDS011;4046;48.774;8.732;2023-12-28T16:51:36;1.20;;;1.10;;
8001;SDS011;4046;48.774;8.732;2023-12-28T16:54:08;1.30;;;1.07;;
8001;SDS011;4046;48.774;8.732;2023-12-28T16:56:49;1.30;;;1.17;;
8001;SDS011;4046;48.774;8.732;2023-12-28T16:59:25;1.30;;;1.10;;